Maysville, Missouri
Current Conditions -  °F | °C
As of 2:53 PM on Thursday 18 Dec 2014 (Local Time) from KSTJ Reporting Station
Overcast Overcast  
Wind Chill: 27°   Ceiling: 1500
Heat Index: 32°   Visibility: 9mi
Dew Point: 28°   Wind: 5mph
Humidity: 85%   Direction: 70°ENE
Pressure: 30.21"   Gusts: NA
Location:  39.89°N, 94.36°W
Report Text: KSTJ 182053Z 07004KT 9SM BKN015 OVC026 00/M02 A3021 RMK AO2 SNE1958 SLP239 P0000 60000 T00001022 56007
Loading
Personal Weather Stations






























Interactive Weather Map New forecast layout! Learn more

10-Day Weather Forecast

Advertisements
Track Severe Weather on mobile